createdAt,value
2019-03-22T00:01:10.145Z,59.80
2019-03-22T00:06:11.765Z,58.28
2019-03-22T00:11:13.408Z,66.55
2019-03-22T00:16:14.909Z,65.57
2019-03-22T00:21:16.357Z,57.53
2019-03-22T00:26:18.146Z,64.53
2019-03-22T00:31:19.679Z,56.77
2019-03-22T00:36:21.516Z,57.43
2019-03-22T00:41:23.479Z,59.42
2019-03-22T00:46:25.126Z,50.35
2019-03-22T00:51:26.799Z,60.55
2019-03-22T00:56:28.216Z,54.70
2019-03-22T01:01:29.897Z,54.15
2019-03-22T01:06:31.417Z,53.25
2019-03-22T01:11:33.099Z,51.08
2019-03-22T01:16:38.545Z,55.17
2019-03-22T01:21:39.941Z,45.85
2019-03-22T01:26:41.353Z,44.18
2019-03-22T01:31:42.988Z,47.70
2019-03-22T01:36:44.592Z,56.45
2019-03-22T01:41:48.254Z,60.00
2019-03-22T01:46:50.375Z,56.83
2019-03-22T01:51:52.022Z,51.88
2019-03-22T01:56:56.808Z,64.00
2019-03-22T02:01:58.472Z,48.98
2019-03-22T02:06:59.955Z,65.05
2019-03-22T02:12:01.294Z,58.23
2019-03-22T02:17:03.671Z,79.27
2019-03-22T02:22:05.285Z,72.80
2019-03-22T02:27:07.011Z,77.40
2019-03-22T02:32:08.662Z,82.55
2019-03-22T02:37:11.144Z,77.03
2019-03-22T02:42:12.803Z,72.75
2019-03-22T02:47:14.478Z,82.33
2019-03-22T02:52:15.911Z,77.90
2019-03-22T02:57:17.301Z,72.97
2019-03-22T03:02:18.841Z,79.40
2019-03-22T03:07:24.791Z,86.57
2019-03-22T03:12:28.100Z,86.25
2019-03-22T03:17:31.086Z,76.37
2019-03-22T03:22:32.619Z,86.95
2019-03-22T03:27:34.136Z,77.47
2019-03-22T03:32:35.631Z,94.05
2019-03-22T03:37:37.443Z,93.58
2019-03-22T03:42:39.049Z,88.15
2019-03-22T03:47:40.776Z,84.25
2019-03-22T03:52:42.409Z,104.67
2019-03-22T03:57:43.984Z,79.75
2019-03-22T04:02:45.461Z,126.33
2019-03-22T04:07:50.247Z,96.50
2019-03-22T04:12:51.730Z,95.65
2019-03-22T04:17:53.224Z,87.92
2019-03-22T04:22:55.090Z,86.75
2019-03-22T04:27:59.585Z,85.55
2019-03-22T04:33:01.004Z,93.42
2019-03-22T04:38:02.535Z,84.83
2019-03-22T04:43:06.651Z,83.03
2019-03-22T04:48:16.543Z,77.60
2019-03-22T04:53:23.857Z,78.83
2019-03-22T04:58:28.650Z,83.72
2019-03-22T05:03:33.534Z,81.37
2019-03-22T05:08:38.213Z,72.15
2019-03-22T05:13:43.546Z,68.02
2019-03-22T05:18:48.116Z,64.03
2019-03-22T05:23:53.666Z,62.20
2019-03-22T05:28:55.824Z,68.55
2019-03-22T05:33:57.280Z,66.02
2019-03-22T05:39:00.178Z,75.60
2019-03-22T05:44:01.844Z,68.62
2019-03-22T05:49:03.354Z,68.75
2019-03-22T05:54:06.843Z,68.35
2019-03-22T05:59:08.517Z,70.08
2019-03-22T06:04:10.314Z,67.45
2019-03-22T06:09:11.942Z,74.45
2019-03-22T06:14:13.256Z,70.72
2019-03-22T06:19:14.862Z,71.82
2019-03-22T06:24:16.641Z,72.60
2019-03-22T06:29:18.036Z,67.75
2019-03-22T06:34:20.499Z,71.80
2019-03-22T06:39:21.918Z,67.65
2019-03-22T06:44:23.880Z,63.60
2019-03-22T06:49:27.184Z,66.25
2019-03-22T06:54:31.938Z,66.82
2019-03-22T06:59:36.591Z,67.85
2019-03-22T07:04:40.384Z,70.10
2019-03-22T07:09:41.699Z,70.87
2019-03-22T07:14:44.445Z,71.55
2019-03-22T07:19:46.189Z,66.35
2019-03-22T07:24:50.296Z,63.10
2019-03-22T07:29:51.679Z,66.70
2019-03-22T07:34:53.057Z,64.45
2019-03-22T07:39:54.453Z,61.98
2019-03-22T07:44:56.041Z,62.80
2019-03-22T07:49:57.397Z,65.35
2019-03-22T07:54:58.890Z,62.17
2019-03-22T08:00:00.887Z,61.13
2019-03-22T08:05:04.485Z,60.23
2019-03-22T08:10:07.717Z,58.48
2019-03-22T08:15:11.155Z,61.50
2019-03-22T08:20:13.637Z,62.00
2019-03-22T08:25:15.496Z,58.42
2019-03-22T08:30:42.966Z,60.43
2019-03-22T08:35:39.408Z,58.20
2019-03-22T08:40:41.263Z,52.85
2019-03-22T08:46:01.458Z,61.88
2019-03-22T08:51:03.257Z,57.88
2019-03-22T08:56:05.013Z,58.35
2019-03-22T09:01:07.041Z,62.67
2019-03-22T09:06:08.493Z,59.10
2019-03-22T09:11:10.885Z,56.90
2019-03-22T09:16:12.419Z,57.08
2019-03-22T09:21:14.029Z,59.73
2019-03-22T09:26:15.429Z,58.40
2019-03-22T09:31:16.989Z,58.05
2019-03-22T09:36:18.510Z,61.48
2019-03-22T09:41:20.252Z,61.85
2019-03-22T09:46:22.122Z,60.85
2019-03-22T09:51:23.530Z,62.43
2019-03-22T09:56:24.904Z,66.65
2019-03-22T10:01:26.392Z,62.85
2019-03-22T10:06:27.826Z,64.30
2019-03-22T10:11:29.413Z,62.93
2019-03-22T10:16:31.177Z,66.47
2019-03-22T10:21:32.668Z,68.67
2019-03-22T10:26:34.305Z,66.05
2019-03-22T10:31:37.800Z,62.13
2019-03-22T10:36:40.655Z,63.30
2019-03-22T10:41:42.150Z,62.88
2019-03-22T10:46:44.959Z,62.27
2019-03-22T10:51:56.757Z,64.15
2019-03-22T10:56:52.125Z,63.90
2019-03-22T11:02:03.144Z,62.43
2019-03-22T11:06:58.955Z,58.87
2019-03-22T11:12:11.755Z,56.60
2019-03-22T11:17:05.809Z,52.90
2019-03-22T11:22:07.323Z,52.80
2019-03-22T11:27:09.021Z,50.17
2019-03-22T11:32:12.867Z,48.73
2019-03-22T11:37:14.169Z,49.65
2019-03-22T11:42:17.385Z,49.15
2019-03-22T11:47:21.356Z,47.58
2019-03-22T11:52:25.385Z,45.70
2019-03-22T11:57:27.883Z,41.90
2019-03-22T12:02:30.564Z,41.90
2019-03-22T12:07:32.147Z,39.08
2019-03-22T12:12:33.614Z,33.67
2019-03-22T12:17:35.023Z,26.12
2019-03-22T12:22:38.553Z,27.20
2019-03-22T12:27:40.397Z,27.55
2019-03-22T12:32:42.161Z,24.90
2019-03-22T12:37:44.555Z,25.57
2019-03-22T12:42:46.603Z,27.00
2019-03-22T12:47:51.618Z,26.07
2019-03-22T12:52:56.140Z,22.50
2019-03-22T12:57:59.509Z,21.57
2019-03-22T13:03:04.529Z,20.72
2019-03-22T13:08:06.746Z,20.97
2019-03-22T13:13:08.254Z,22.37
2019-03-22T13:18:09.648Z,17.70
2019-03-22T13:23:11.137Z,16.80
2019-03-22T13:28:12.499Z,16.90
2019-03-22T13:33:16.343Z,14.07
2019-03-22T13:38:23.854Z,10.45
2019-03-22T13:43:26.618Z,16.42
2019-03-22T13:48:28.076Z,17.05
2019-03-22T13:53:29.992Z,16.90
2019-03-22T13:58:33.429Z,17.32
2019-03-22T14:03:34.894Z,18.02
2019-03-22T14:08:36.239Z,17.07
2019-03-22T14:13:39.736Z,18.20
2019-03-22T14:18:43.100Z,17.77
2019-03-22T14:23:44.857Z,18.48
2019-03-22T14:28:46.230Z,19.32
2019-03-22T14:33:49.522Z,19.75
2019-03-22T14:38:51.257Z,18.67
2019-03-22T14:43:53.707Z,20.27
2019-03-22T14:48:55.428Z,19.77
2019-03-22T14:53:59.177Z,18.32
2019-03-22T14:59:00.756Z,18.87
2019-03-22T15:04:02.419Z,18.90
2019-03-22T15:09:06.171Z,18.67
2019-03-22T15:14:28.942Z,16.87
2019-03-22T15:19:52.077Z,17.20
2019-03-22T15:25:13.352Z,17.77
2019-03-22T15:30:35.705Z,18.10
2019-03-22T15:35:45.144Z,18.27
2019-03-22T15:40:46.751Z,17.62
2019-03-22T15:45:48.817Z,17.95
2019-03-22T15:50:50.419Z,18.12
2019-03-22T15:55:53.609Z,17.87
2019-03-22T16:00:55.095Z,17.55
2019-03-22T16:06:00.045Z,16.93
2019-03-22T16:11:03.172Z,18.48
2019-03-22T16:16:04.582Z,19.12
2019-03-22T16:21:08.316Z,19.82
2019-03-22T16:26:13.705Z,19.67
2019-03-22T16:31:16.234Z,18.20
2019-03-22T16:36:19.741Z,19.75
2019-03-22T16:41:21.622Z,20.37
2019-03-22T16:46:23.467Z,19.65
2019-03-22T16:51:25.660Z,19.07
2019-03-22T16:56:30.154Z,19.02
2019-03-22T17:01:31.734Z,18.75
2019-03-22T17:06:38.313Z,17.85
2019-03-22T17:11:42.997Z,18.98
2019-03-22T17:16:51.446Z,18.80
2019-03-22T17:21:52.991Z,18.48
2019-03-22T17:26:56.356Z,18.27
2019-03-22T17:31:57.887Z,18.20
2019-03-22T17:36:59.319Z,20.30
2019-03-22T17:42:02.195Z,19.92
2019-03-22T17:47:03.961Z,36.68
2019-03-22T17:52:07.363Z,35.65
2019-03-22T17:57:18.557Z,32.30
2019-03-22T18:02:16.433Z,34.23
2019-03-22T18:07:18.117Z,33.83
2019-03-22T18:12:21.581Z,36.35
2019-03-22T18:17:23.374Z,31.10
2019-03-22T18:22:24.931Z,32.90
2019-03-22T18:27:26.482Z,32.20
2019-03-22T18:32:30.002Z,33.10
2019-03-22T18:37:31.669Z,38.10
2019-03-22T18:42:33.281Z,38.20
2019-03-22T18:47:36.697Z,36.05
2019-03-22T18:52:38.254Z,36.88
2019-03-22T18:57:40.183Z,37.48
2019-03-22T19:02:44.005Z,37.95
2019-03-22T19:07:45.844Z,43.45
2019-03-22T19:12:47.442Z,45.63
2019-03-22T19:17:49.075Z,46.95
2019-03-22T19:22:50.595Z,45.83
2019-03-22T19:27:52.591Z,50.23
2019-03-22T19:32:54.194Z,48.00
2019-03-22T19:37:58.072Z,47.48
2019-03-22T19:42:59.473Z,52.60
2019-03-22T19:48:01.265Z,52.08
2019-03-22T19:53:03.061Z,54.63
2019-03-22T19:58:06.368Z,56.83
2019-03-22T20:03:08.586Z,52.60
2019-03-22T20:08:13.875Z,54.20
2019-03-22T20:13:15.998Z,54.53
2019-03-22T20:18:17.549Z,53.95
2019-03-22T20:23:19.240Z,52.13
2019-03-22T20:28:20.614Z,50.85
2019-03-22T20:33:22.512Z,49.15
2019-03-22T20:38:28.315Z,52.98
2019-03-22T20:43:31.969Z,54.85
2019-03-22T20:48:35.378Z,57.67
2019-03-22T20:53:38.688Z,53.63
2019-03-22T20:58:41.286Z,58.63
2019-03-22T21:03:42.881Z,59.38
2019-03-22T21:08:44.664Z,60.28
2019-03-22T21:13:46.120Z,59.33
2019-03-22T21:18:48.336Z,59.00
2019-03-22T21:23:49.951Z,57.73
2019-03-22T21:28:52.467Z,61.65
2019-03-22T21:33:54.566Z,58.75
2019-03-22T21:38:56.220Z,60.73
2019-03-22T21:43:57.980Z,63.98
2019-03-22T21:48:59.551Z,65.87
2019-03-22T21:54:02.480Z,65.28
2019-03-22T21:59:08.219Z,70.25
2019-03-22T22:04:09.836Z,63.48
2019-03-22T22:09:11.247Z,59.18
2019-03-22T22:14:14.533Z,63.00
2019-03-22T22:19:17.290Z,62.50
2019-03-22T22:24:18.850Z,66.30
2019-03-22T22:29:20.304Z,62.25
2019-03-22T22:34:24.971Z,64.05
2019-03-22T22:39:26.881Z,69.17
2019-03-22T22:44:28.691Z,66.47
2019-03-22T22:49:30.139Z,62.70
2019-03-22T22:54:33.477Z,63.33
2019-03-22T22:59:34.856Z,66.02
2019-03-22T23:04:38.416Z,66.87
2019-03-22T23:09:40.339Z,61.63
2019-03-22T23:14:41.649Z,61.33
2019-03-22T23:19:43.052Z,64.37
2019-03-22T23:24:47.512Z,64.27
2019-03-22T23:29:49.185Z,63.17
2019-03-22T23:34:59.027Z,59.93
2019-03-22T23:39:56.289Z,61.28
2019-03-22T23:44:57.702Z,60.23
2019-03-22T23:49:59.092Z,61.65
2019-03-22T23:55:00.575Z,55.85
